sensor_id;sensor_type;location;lat;lon;timestamp;temperature;humidity
23744;DHT22;12052;53.478;10.182;2023-07-13T00:02:10;16.50;99.90
23744;DHT22;12052;53.478;10.182;2023-07-13T00:04:36;16.50;99.90
23744;DHT22;12052;53.478;10.182;2023-07-13T00:07:02;16.50;99.90
23744;DHT22;12052;53.478;10.182;2023-07-13T00:09:28;16.50;99.90
23744;DHT22;12052;53.478;10.182;2023-07-13T00:11:55;16.50;99.90
23744;DHT22;12052;53.478;10.182;2023-07-13T00:14:22;16.40;99.90
23744;DHT22;12052;53.478;10.182;2023-07-13T00:16:48;16.40;99.90
23744;DHT22;12052;53.478;10.182;2023-07-13T00:19:14;16.40;99.90
23744;DHT22;12052;53.478;10.182;2023-07-13T00:21:40;16.40;99.90
23744;DHT22;12052;53.478;10.182;2023-07-13T00:24:07;16.30;99.90
23744;DHT22;12052;53.478;10.182;2023-07-13T00:26:33;16.30;99.90
23744;DHT22;12052;53.478;10.182;2023-07-13T00:28:59;16.20;99.90
23744;DHT22;12052;53.478;10.182;2023-07-13T00:31:25;16.20;99.90
23744;DHT22;12052;53.478;10.182;2023-07-13T00:33:51;16.20;99.90
23744;DHT22;12052;53.478;10.182;2023-07-13T00:36:17;16.20;99.90
23744;DHT22;12052;53.478;10.182;2023-07-13T00:38:42;16.10;99.90
23744;DHT22;12052;53.478;10.182;2023-07-13T00:41:09;16.10;99.90
23744;DHT22;12052;53.478;10.182;2023-07-13T00:43:35;16.00;99.90
23744;DHT22;12052;53.478;10.182;2023-07-13T00:48:32;15.90;99.90
23744;DHT22;12052;53.478;10.182;2023-07-13T00:51:00;15.90;99.90
23744;DHT22;12052;53.478;10.182;2023-07-13T00:53:29;15.90;99.90
23744;DHT22;12052;53.478;10.182;2023-07-13T00:55:56;15.90;99.90
23744;DHT22;12052;53.478;10.182;2023-07-13T00:58:26;15.90;99.90
23744;DHT22;12052;53.478;10.182;2023-07-13T01:00:52;15.80;99.90
23744;DHT22;12052;53.478;10.182;2023-07-13T01:03:19;15.80;99.90
23744;DHT22;12052;53.478;10.182;2023-07-13T01:05:47;15.80;99.90
23744;DHT22;12052;53.478;10.182;2023-07-13T01:08:13;15.80;99.90
23744;DHT22;12052;53.478;10.182;2023-07-13T01:10:39;15.80;99.90
23744;DHT22;12052;53.478;10.182;2023-07-13T01:13:09;15.70;99.90
23744;DHT22;12052;53.478;10.182;2023-07-13T01:15:41;15.70;99.90
23744;DHT22;12052;53.478;10.182;2023-07-13T01:18:20;15.70;99.90
23744;DHT22;12052;53.478;10.182;2023-07-13T01:23:22;15.60;99.90
23744;DHT22;12052;53.478;10.182;2023-07-13T01:25:48;15.50;99.90
23744;DHT22;12052;53.478;10.182;2023-07-13T01:28:14;15.50;99.90
23744;DHT22;12052;53.478;10.182;2023-07-13T01:30:43;15.50;99.90
23744;DHT22;12052;53.478;10.182;2023-07-13T01:33:12;15.40;99.90
23744;DHT22;12052;53.478;10.182;2023-07-13T01:35:38;15.40;99.90
23744;DHT22;12052;53.478;10.182;2023-07-13T01:38:05;15.40;99.90
23744;DHT22;12052;53.478;10.182;2023-07-13T01:40:31;15.40;99.90
23744;DHT22;12052;53.478;10.182;2023-07-13T01:42:58;15.40;99.90
23744;DHT22;12052;53.478;10.182;2023-07-13T01:45:23;15.40;99.90
23744;DHT22;12052;53.478;10.182;2023-07-13T01:47:49;15.30;99.90
23744;DHT22;12052;53.478;10.182;2023-07-13T01:50:15;15.30;99.90
23744;DHT22;12052;53.478;10.182;2023-07-13T01:52:41;15.30;99.90
23744;DHT22;12052;53.478;10.182;2023-07-13T01:55:07;15.30;99.90
23744;DHT22;12052;53.478;10.182;2023-07-13T01:57:33;15.20;99.90
23744;DHT22;12052;53.478;10.182;2023-07-13T01:59:59;15.20;99.90
23744;DHT22;12052;53.478;10.182;2023-07-13T02:02:24;15.10;99.90
23744;DHT22;12052;53.478;10.182;2023-07-13T02:04:50;15.10;99.90
23744;DHT22;12052;53.478;10.182;2023-07-13T02:07:16;15.10;99.90
23744;DHT22;12052;53.478;10.182;2023-07-13T02:09:41;15.10;99.90
23744;DHT22;12052;53.478;10.182;2023-07-13T02:12:07;15.00;99.90
23744;DHT22;12052;53.478;10.182;2023-07-13T02:14:33;15.00;99.90
23744;DHT22;12052;53.478;10.182;2023-07-13T02:16:59;15.00;99.90
23744;DHT22;12052;53.478;10.182;2023-07-13T02:19:24;14.90;99.90
23744;DHT22;12052;53.478;10.182;2023-07-13T02:21:50;14.90;99.90
23744;DHT22;12052;53.478;10.182;2023-07-13T02:24:16;14.90;99.90
23744;DHT22;12052;53.478;10.182;2023-07-13T02:26:43;14.90;99.90
23744;DHT22;12052;53.478;10.182;2023-07-13T02:29:10;14.90;99.90
23744;DHT22;12052;53.478;10.182;2023-07-13T02:31:36;14.90;99.90
23744;DHT22;12052;53.478;10.182;2023-07-13T02:34:02;14.80;99.90
23744;DHT22;12052;53.478;10.182;2023-07-13T02:36:28;14.80;99.90
23744;DHT22;12052;53.478;10.182;2023-07-13T02:38:54;14.80;99.90
23744;DHT22;12052;53.478;10.182;2023-07-13T02:41:19;14.80;99.90
23744;DHT22;12052;53.478;10.182;2023-07-13T02:43:45;14.70;99.90
23744;DHT22;12052;53.478;10.182;2023-07-13T02:46:11;14.70;99.90
23744;DHT22;12052;53.478;10.182;2023-07-13T02:48:38;14.70;99.90
23744;DHT22;12052;53.478;10.182;2023-07-13T02:51:03;14.70;99.90
23744;DHT22;12052;53.478;10.182;2023-07-13T02:53:29;14.70;99.90
23744;DHT22;12052;53.478;10.182;2023-07-13T02:55:55;14.70;99.90
23744;DHT22;12052;53.478;10.182;2023-07-13T02:58:20;14.60;99.90
23744;DHT22;12052;53.478;10.182;2023-07-13T03:00:47;14.60;99.90
23744;DHT22;12052;53.478;10.182;2023-07-13T03:03:16;14.60;99.90
23744;DHT22;12052;53.478;10.182;2023-07-13T03:05:43;14.60;99.90
23744;DHT22;12052;53.478;10.182;2023-07-13T03:08:11;14.50;99.90
23744;DHT22;12052;53.478;10.182;2023-07-13T03:10:37;14.50;99.90
23744;DHT22;12052;53.478;10.182;2023-07-13T03:13:05;14.50;99.90
23744;DHT22;12052;53.478;10.182;2023-07-13T03:15:30;14.50;99.90
23744;DHT22;12052;53.478;10.182;2023-07-13T03:17:56;14.50;99.90
23744;DHT22;12052;53.478;10.182;2023-07-13T03:20:21;14.50;99.90
23744;DHT22;12052;53.478;10.182;2023-07-13T03:22:47;14.50;99.90
23744;DHT22;12052;53.478;10.182;2023-07-13T03:25:13;14.50;99.90
23744;DHT22;12052;53.478;10.182;2023-07-13T03:27:38;14.40;99.90
23744;DHT22;12052;53.478;10.182;2023-07-13T03:30:04;14.50;99.90
23744;DHT22;12052;53.478;10.182;2023-07-13T03:32:30;14.50;99.90
23744;DHT22;12052;53.478;10.182;2023-07-13T03:34:56;14.40;99.90
23744;DHT22;12052;53.478;10.182;2023-07-13T03:37:22;14.50;99.90
23744;DHT22;12052;53.478;10.182;2023-07-13T03:39:47;14.50;99.90
23744;DHT22;12052;53.478;10.182;2023-07-13T03:42:13;14.50;99.90
23744;DHT22;12052;53.478;10.182;2023-07-13T03:44:40;14.40;99.90
23744;DHT22;12052;53.478;10.182;2023-07-13T03:47:06;14.50;99.90
23744;DHT22;12052;53.478;10.182;2023-07-13T03:49:34;14.40;99.90
23744;DHT22;12052;53.478;10.182;2023-07-13T03:52:00;14.40;99.90
23744;DHT22;12052;53.478;10.182;2023-07-13T03:54:26;14.40;99.90
23744;DHT22;12052;53.478;10.182;2023-07-13T03:56:51;14.40;99.90
23744;DHT22;12052;53.478;10.182;2023-07-13T03:59:17;14.40;99.90
23744;DHT22;12052;53.478;10.182;2023-07-13T04:01:44;14.40;99.90
23744;DHT22;12052;53.478;10.182;2023-07-13T04:04:09;14.40;99.90
23744;DHT22;12052;53.478;10.182;2023-07-13T04:06:35;14.40;99.90
23744;DHT22;12052;53.478;10.182;2023-07-13T04:09:03;14.40;99.90
23744;DHT22;12052;53.478;10.182;2023-07-13T04:11:32;14.40;99.90
23744;DHT22;12052;53.478;10.182;2023-07-13T04:13:58;14.30;99.90
23744;DHT22;12052;53.478;10.182;2023-07-13T04:16:25;14.40;99.90
23744;DHT22;12052;53.478;10.182;2023-07-13T04:18:51;14.40;99.90
23744;DHT22;12052;53.478;10.182;2023-07-13T04:21:20;14.40;99.90
23744;DHT22;12052;53.478;10.182;2023-07-13T04:23:46;14.40;99.90
23744;DHT22;12052;53.478;10.182;2023-07-13T04:26:12;14.50;99.90
23744;DHT22;12052;53.478;10.182;2023-07-13T04:28:37;14.50;99.90
23744;DHT22;12052;53.478;10.182;2023-07-13T04:31:03;14.50;99.90
23744;DHT22;12052;53.478;10.182;2023-07-13T04:33:28;14.60;99.90
23744;DHT22;12052;53.478;10.182;2023-07-13T04:35:55;14.80;99.90
23744;DHT22;12052;53.478;10.182;2023-07-13T04:38:29;14.80;99.90
23744;DHT22;12052;53.478;10.182;2023-07-13T04:40:57;14.80;99.90
23744;DHT22;12052;53.478;10.182;2023-07-13T04:43:23;14.90;99.90
23744;DHT22;12052;53.478;10.182;2023-07-13T04:45:51;14.90;99.90
23744;DHT22;12052;53.478;10.182;2023-07-13T04:48:16;15.00;99.90
23744;DHT22;12052;53.478;10.182;2023-07-13T04:50:42;15.00;99.90
23744;DHT22;12052;53.478;10.182;2023-07-13T04:53:09;15.10;99.90
23744;DHT22;12052;53.478;10.182;2023-07-13T04:55:34;15.20;99.90
23744;DHT22;12052;53.478;10.182;2023-07-13T04:58:00;15.20;99.90
23744;DHT22;12052;53.478;10.182;2023-07-13T05:00:26;15.30;99.90
23744;DHT22;12052;53.478;10.182;2023-07-13T05:02:53;15.30;99.90
23744;DHT22;12052;53.478;10.182;2023-07-13T05:05:19;15.40;99.90
23744;DHT22;12052;53.478;10.182;2023-07-13T05:07:44;15.50;99.90
23744;DHT22;12052;53.478;10.182;2023-07-13T05:10:10;15.60;99.90
23744;DHT22;12052;53.478;10.182;2023-07-13T05:12:36;15.60;99.90
23744;DHT22;12052;53.478;10.182;2023-07-13T05:15:02;15.70;99.90
23744;DHT22;12052;53.478;10.182;2023-07-13T05:17:28;15.70;99.90
23744;DHT22;12052;53.478;10.182;2023-07-13T05:19:53;15.80;99.90
23744;DHT22;12052;53.478;10.182;2023-07-13T05:22:19;15.80;99.90
23744;DHT22;12052;53.478;10.182;2023-07-13T05:24:45;15.90;99.90
23744;DHT22;12052;53.478;10.182;2023-07-13T05:27:10;15.90;99.90
23744;DHT22;12052;53.478;10.182;2023-07-13T05:29:36;15.90;99.90
23744;DHT22;12052;53.478;10.182;2023-07-13T05:32:02;16.00;99.90
23744;DHT22;12052;53.478;10.182;2023-07-13T05:34:29;16.10;99.90
23744;DHT22;12052;53.478;10.182;2023-07-13T05:36:54;16.20;99.90
23744;DHT22;12052;53.478;10.182;2023-07-13T05:39:20;16.30;99.90
23744;DHT22;12052;53.478;10.182;2023-07-13T05:41:46;16.40;99.90
23744;DHT22;12052;53.478;10.182;2023-07-13T05:44:11;16.60;99.90
23744;DHT22;12052;53.478;10.182;2023-07-13T05:46:37;16.70;99.90
23744;DHT22;12052;53.478;10.182;2023-07-13T05:49:02;16.90;99.90
23744;DHT22;12052;53.478;10.182;2023-07-13T05:51:29;17.10;99.90
23744;DHT22;12052;53.478;10.182;2023-07-13T05:53:54;17.20;99.90
23744;DHT22;12052;53.478;10.182;2023-07-13T05:56:20;17.30;99.90
23744;DHT22;12052;53.478;10.182;2023-07-13T05:58:47;17.30;99.90
23744;DHT22;12052;53.478;10.182;2023-07-13T06:01:13;17.30;99.90
23744;DHT22;12052;53.478;10.182;2023-07-13T06:03:39;17.30;99.90
23744;DHT22;12052;53.478;10.182;2023-07-13T06:06:07;17.40;99.90
23744;DHT22;12052;53.478;10.182;2023-07-13T06:08:33;17.40;99.90
23744;DHT22;12052;53.478;10.182;2023-07-13T06:11:09;17.50;99.90
23744;DHT22;12052;53.478;10.182;2023-07-13T06:13:35;17.60;99.90
23744;DHT22;12052;53.478;10.182;2023-07-13T06:16:02;17.70;99.90
23744;DHT22;12052;53.478;10.182;2023-07-13T06:18:30;17.80;99.90
23744;DHT22;12052;53.478;10.182;2023-07-13T06:20:56;17.90;99.90
23744;DHT22;12052;53.478;10.182;2023-07-13T06:23:22;17.90;99.90
23744;DHT22;12052;53.478;10.182;2023-07-13T06:25:48;18.00;99.90
23744;DHT22;12052;53.478;10.182;2023-07-13T06:28:14;18.30;99.90
23744;DHT22;12052;53.478;10.182;2023-07-13T06:30:39;18.30;99.90
23744;DHT22;12052;53.478;10.182;2023-07-13T06:33:05;18.50;99.90
23744;DHT22;12052;53.478;10.182;2023-07-13T06:35:31;18.70;99.90
23744;DHT22;12052;53.478;10.182;2023-07-13T06:37:57;18.60;99.90
23744;DHT22;12052;53.478;10.182;2023-07-13T06:40:22;18.60;99.90
23744;DHT22;12052;53.478;10.182;2023-07-13T06:42:48;18.60;99.90
23744;DHT22;12052;53.478;10.182;2023-07-13T06:45:13;18.60;99.90
23744;DHT22;12052;53.478;10.182;2023-07-13T06:47:39;18.80;99.90
23744;DHT22;12052;53.478;10.182;2023-07-13T06:50:05;18.70;99.90
23744;DHT22;12052;53.478;10.182;2023-07-13T06:52:31;18.70;99.90
23744;DHT22;12052;53.478;10.182;2023-07-13T06:54:56;18.60;99.90
23744;DHT22;12052;53.478;10.182;2023-07-13T06:57:22;18.50;99.90
23744;DHT22;12052;53.478;10.182;2023-07-13T06:59:48;18.70;99.90
23744;DHT22;12052;53.478;10.182;2023-07-13T07:02:13;18.80;99.90
23744;DHT22;12052;53.478;10.182;2023-07-13T07:04:39;18.70;99.90
23744;DHT22;12052;53.478;10.182;2023-07-13T07:07:04;18.60;99.90
23744;DHT22;12052;53.478;10.182;2023-07-13T07:09:30;18.60;99.90
23744;DHT22;12052;53.478;10.182;2023-07-13T07:11:57;18.60;99.90
23744;DHT22;12052;53.478;10.182;2023-07-13T07:14:22;18.60;99.90
23744;DHT22;12052;53.478;10.182;2023-07-13T07:16:49;18.50;99.90
23744;DHT22;12052;53.478;10.182;2023-07-13T07:19:14;18.50;99.90
23744;DHT22;12052;53.478;10.182;2023-07-13T07:21:40;18.70;99.90
23744;DHT22;12052;53.478;10.182;2023-07-13T07:24:05;18.60;99.90
23744;DHT22;12052;53.478;10.182;2023-07-13T07:26:31;18.60;99.90
23744;DHT22;12052;53.478;10.182;2023-07-13T07:28:57;18.70;99.90
23744;DHT22;12052;53.478;10.182;2023-07-13T07:31:22;18.80;99.90
23744;DHT22;12052;53.478;10.182;2023-07-13T07:33:48;18.80;99.90
23744;DHT22;12052;53.478;10.182;2023-07-13T07:36:15;18.80;99.90
23744;DHT22;12052;53.478;10.182;2023-07-13T07:38:41;18.80;99.90
23744;DHT22;12052;53.478;10.182;2023-07-13T07:41:07;18.90;99.90
23744;DHT22;12052;53.478;10.182;2023-07-13T07:43:33;18.90;99.90
23744;DHT22;12052;53.478;10.182;2023-07-13T07:45:58;19.00;99.90
23744;DHT22;12052;53.478;10.182;2023-07-13T07:48:24;19.20;99.90
23744;DHT22;12052;53.478;10.182;2023-07-13T07:50:50;19.30;99.90
23744;DHT22;12052;53.478;10.182;2023-07-13T07:53:15;19.30;99.90
23744;DHT22;12052;53.478;10.182;2023-07-13T07:55:41;19.30;99.90
23744;DHT22;12052;53.478;10.182;2023-07-13T07:58:07;19.40;99.90
23744;DHT22;12052;53.478;10.182;2023-07-13T08:00:33;19.40;99.90
23744;DHT22;12052;53.478;10.182;2023-07-13T08:02:59;19.50;99.90
23744;DHT22;12052;53.478;10.182;2023-07-13T08:05:25;19.30;99.90
23744;DHT22;12052;53.478;10.182;2023-07-13T08:07:50;19.30;99.90
23744;DHT22;12052;53.478;10.182;2023-07-13T08:10:16;19.10;99.90
23744;DHT22;12052;53.478;10.182;2023-07-13T08:12:42;19.00;99.90
23744;DHT22;12052;53.478;10.182;2023-07-13T08:15:11;19.00;99.90
23744;DHT22;12052;53.478;10.182;2023-07-13T08:17:37;19.10;99.90
23744;DHT22;12052;53.478;10.182;2023-07-13T08:20:03;19.10;99.90
23744;DHT22;12052;53.478;10.182;2023-07-13T08:22:29;19.20;99.90
23744;DHT22;12052;53.478;10.182;2023-07-13T08:24:55;19.30;99.90
23744;DHT22;12052;53.478;10.182;2023-07-13T08:27:22;19.30;99.90
23744;DHT22;12052;53.478;10.182;2023-07-13T08:29:49;19.20;99.90
23744;DHT22;12052;53.478;10.182;2023-07-13T08:32:14;19.20;99.90
23744;DHT22;12052;53.478;10.182;2023-07-13T08:34:40;19.40;99.90
23744;DHT22;12052;53.478;10.182;2023-07-13T08:37:06;19.70;99.90
23744;DHT22;12052;53.478;10.182;2023-07-13T08:39:33;19.90;99.90
23744;DHT22;12052;53.478;10.182;2023-07-13T08:42:06;20.30;99.90
23744;DHT22;12052;53.478;10.182;2023-07-13T08:47:22;20.40;99.90
23744;DHT22;12052;53.478;10.182;2023-07-13T08:49:49;20.60;99.90
23744;DHT22;12052;53.478;10.182;2023-07-13T08:52:37;20.70;99.90
23744;DHT22;12052;53.478;10.182;2023-07-13T08:55:16;20.60;99.90
23744;DHT22;12052;53.478;10.182;2023-07-13T08:57:43;20.70;99.90
23744;DHT22;12052;53.478;10.182;2023-07-13T09:00:12;20.70;99.90
23744;DHT22;12052;53.478;10.182;2023-07-13T09:05:29;20.70;99.90
23744;DHT22;12052;53.478;10.182;2023-07-13T09:10:53;20.60;99.90
23744;DHT22;12052;53.478;10.182;2023-07-13T09:16:11;20.30;99.90
23744;DHT22;12052;53.478;10.182;2023-07-13T09:18:42;20.20;99.90
23744;DHT22;12052;53.478;10.182;2023-07-13T09:21:33;20.30;99.90
23744;DHT22;12052;53.478;10.182;2023-07-13T09:26:53;21.10;99.90
23744;DHT22;12052;53.478;10.182;2023-07-13T09:29:28;21.20;99.90
23744;DHT22;12052;53.478;10.182;2023-07-13T09:31:57;21.40;99.90
23744;DHT22;12052;53.478;10.182;2023-07-13T09:34:25;21.60;99.90
23744;DHT22;12052;53.478;10.182;2023-07-13T09:36:51;21.70;99.90
23744;DHT22;12052;53.478;10.182;2023-07-13T09:39:33;21.80;99.90
23744;DHT22;12052;53.478;10.182;2023-07-13T09:44:31;21.80;99.90
23744;DHT22;12052;53.478;10.182;2023-07-13T09:46:59;21.70;99.90
23744;DHT22;12052;53.478;10.182;2023-07-13T09:49:36;21.70;99.90
23744;DHT22;12052;53.478;10.182;2023-07-13T09:52:05;21.70;99.90
23744;DHT22;12052;53.478;10.182;2023-07-13T09:54:34;21.50;99.90
23744;DHT22;12052;53.478;10.182;2023-07-13T09:57:02;21.50;99.90
23744;DHT22;12052;53.478;10.182;2023-07-13T09:59:40;21.30;99.90
23744;DHT22;12052;53.478;10.182;2023-07-13T10:02:29;21.20;99.90
23744;DHT22;12052;53.478;10.182;2023-07-13T10:05:07;21.40;99.90
23744;DHT22;12052;53.478;10.182;2023-07-13T10:07:39;21.70;99.90
23744;DHT22;12052;53.478;10.182;2023-07-13T10:10:15;21.70;99.90
23744;DHT22;12052;53.478;10.182;2023-07-13T10:12:40;21.80;99.90
23744;DHT22;12052;53.478;10.182;2023-07-13T10:15:12;22.00;99.90
23744;DHT22;12052;53.478;10.182;2023-07-13T10:17:38;22.20;99.90
23744;DHT22;12052;53.478;10.182;2023-07-13T10:20:06;22.50;99.90
23744;DHT22;12052;53.478;10.182;2023-07-13T10:22:47;22.80;99.90
23744;DHT22;12052;53.478;10.182;2023-07-13T10:25:24;22.90;99.90
23744;DHT22;12052;53.478;10.182;2023-07-13T10:27:53;23.10;99.90
23744;DHT22;12052;53.478;10.182;2023-07-13T10:30:32;23.20;99.90
23744;DHT22;12052;53.478;10.182;2023-07-13T10:33:02;23.40;99.90
23744;DHT22;12052;53.478;10.182;2023-07-13T10:35:30;23.20;99.90
23744;DHT22;12052;53.478;10.182;2023-07-13T10:38:15;23.10;99.90
23744;DHT22;12052;53.478;10.182;2023-07-13T10:40:48;22.60;99.90
23744;DHT22;12052;53.478;10.182;2023-07-13T10:43:28;22.30;99.90
23744;DHT22;12052;53.478;10.182;2023-07-13T10:45:57;22.00;99.90
23744;DHT22;12052;53.478;10.182;2023-07-13T10:48:25;21.70;99.90
23744;DHT22;12052;53.478;10.182;2023-07-13T10:50:52;21.40;99.90
23744;DHT22;12052;53.478;10.182;2023-07-13T10:53:29;21.30;99.90
23744;DHT22;12052;53.478;10.182;2023-07-13T10:56:04;21.30;99.90
23744;DHT22;12052;53.478;10.182;2023-07-13T11:01:11;21.80;99.90
23744;DHT22;12052;53.478;10.182;2023-07-13T11:11:40;23.10;99.90
23744;DHT22;12052;53.478;10.182;2023-07-13T11:16:52;23.40;99.90
23744;DHT22;12052;53.478;10.182;2023-07-13T11:24:59;23.00;99.90
23744;DHT22;12052;53.478;10.182;2023-07-13T11:36:02;22.50;99.90
23744;DHT22;12052;53.478;10.182;2023-07-13T11:38:43;22.60;99.90
23744;DHT22;12052;53.478;10.182;2023-07-13T11:43:44;23.00;99.90
23744;DHT22;12052;53.478;10.182;2023-07-13T11:46:20;22.80;99.90
23744;DHT22;12052;53.478;10.182;2023-07-13T11:48:47;22.90;99.90
23744;DHT22;12052;53.478;10.182;2023-07-13T11:51:29;23.00;99.90
23744;DHT22;12052;53.478;10.182;2023-07-13T11:54:00;23.20;99.90
23744;DHT22;12052;53.478;10.182;2023-07-13T11:56:27;23.40;99.90
23744;DHT22;12052;53.478;10.182;2023-07-13T11:58:54;23.40;99.90
23744;DHT22;12052;53.478;10.182;2023-07-13T12:01:23;23.50;99.90
23744;DHT22;12052;53.478;10.182;2023-07-13T12:03:51;23.70;99.90
23744;DHT22;12052;53.478;10.182;2023-07-13T12:06:41;23.60;99.90
23744;DHT22;12052;53.478;10.182;2023-07-13T12:09:12;23.50;99.90
23744;DHT22;12052;53.478;10.182;2023-07-13T12:11:41;23.70;99.90
23744;DHT22;12052;53.478;10.182;2023-07-13T12:14:17;23.80;99.90
23744;DHT22;12052;53.478;10.182;2023-07-13T12:16:43;23.70;99.90
23744;DHT22;12052;53.478;10.182;2023-07-13T12:19:26;24.00;99.90
23744;DHT22;12052;53.478;10.182;2023-07-13T12:21:57;24.10;99.90
23744;DHT22;12052;53.478;10.182;2023-07-13T12:24:24;24.20;99.90
23744;DHT22;12052;53.478;10.182;2023-07-13T12:29:18;23.40;99.90
23744;DHT22;12052;53.478;10.182;2023-07-13T12:31:45;23.40;99.90
23744;DHT22;12052;53.478;10.182;2023-07-13T12:34:16;23.30;99.90
23744;DHT22;12052;53.478;10.182;2023-07-13T12:37:01;22.50;99.90
23744;DHT22;12052;53.478;10.182;2023-07-13T12:45:02;19.40;99.90
23744;DHT22;12052;53.478;10.182;2023-07-13T12:47:29;18.40;99.90
23744;DHT22;12052;53.478;10.182;2023-07-13T12:49:58;17.90;99.90
23744;DHT22;12052;53.478;10.182;2023-07-13T12:52:34;17.60;99.90
23744;DHT22;12052;53.478;10.182;2023-07-13T12:55:10;17.40;99.90
23744;DHT22;12052;53.478;10.182;2023-07-13T12:58:02;17.30;99.90
23744;DHT22;12052;53.478;10.182;2023-07-13T13:00:31;17.30;99.90
23744;DHT22;12052;53.478;10.182;2023-07-13T13:03:29;17.30;99.90
23744;DHT22;12052;53.478;10.182;2023-07-13T13:08:25;17.20;99.90
23744;DHT22;12052;53.478;10.182;2023-07-13T13:10:51;17.30;99.90
23744;DHT22;12052;53.478;10.182;2023-07-13T13:13:16;17.30;99.90
23744;DHT22;12052;53.478;10.182;2023-07-13T13:15:42;17.40;99.90
23744;DHT22;12052;53.478;10.182;2023-07-13T13:18:22;17.40;99.90
23744;DHT22;12052;53.478;10.182;2023-07-13T13:20:49;17.50;99.90
23744;DHT22;12052;53.478;10.182;2023-07-13T13:23:18;17.70;99.90
23744;DHT22;12052;53.478;10.182;2023-07-13T13:25:46;17.80;99.90
23744;DHT22;12052;53.478;10.182;2023-07-13T13:28:16;17.90;99.90
23744;DHT22;12052;53.478;10.182;2023-07-13T13:30:43;18.00;99.90
23744;DHT22;12052;53.478;10.182;2023-07-13T13:33:14;18.00;99.90
23744;DHT22;12052;53.478;10.182;2023-07-13T13:35:41;18.00;99.90
23744;DHT22;12052;53.478;10.182;2023-07-13T13:40:37;18.20;99.90
23744;DHT22;12052;53.478;10.182;2023-07-13T13:43:09;18.30;99.90
23744;DHT22;12052;53.478;10.182;2023-07-13T13:45:39;18.50;99.90
23744;DHT22;12052;53.478;10.182;2023-07-13T13:48:05;18.50;99.90
23744;DHT22;12052;53.478;10.182;2023-07-13T13:50:31;18.60;99.90
23744;DHT22;12052;53.478;10.182;2023-07-13T13:52:56;18.60;99.90
23744;DHT22;12052;53.478;10.182;2023-07-13T13:55:22;18.60;99.90
23744;DHT22;12052;53.478;10.182;2023-07-13T13:57:49;18.50;99.90
23744;DHT22;12052;53.478;10.182;2023-07-13T14:00:16;18.40;99.90
23744;DHT22;12052;53.478;10.182;2023-07-13T14:02:45;18.40;99.90
23744;DHT22;12052;53.478;10.182;2023-07-13T14:05:14;18.40;99.90
23744;DHT22;12052;53.478;10.182;2023-07-13T14:07:41;18.30;99.90
23744;DHT22;12052;53.478;10.182;2023-07-13T14:10:15;18.40;99.90
23744;DHT22;12052;53.478;10.182;2023-07-13T14:12:42;18.40;99.90
23744;DHT22;12052;53.478;10.182;2023-07-13T14:15:29;18.40;99.90
23744;DHT22;12052;53.478;10.182;2023-07-13T14:17:56;18.50;99.90
23744;DHT22;12052;53.478;10.182;2023-07-13T14:20:24;18.50;99.90
23744;DHT22;12052;53.478;10.182;2023-07-13T14:33:19;18.60;99.90
23744;DHT22;12052;53.478;10.182;2023-07-13T14:35:45;18.70;99.90
23744;DHT22;12052;53.478;10.182;2023-07-13T14:41:26;18.80;99.90
23744;DHT22;12052;53.478;10.182;2023-07-13T14:43:52;18.80;99.90
23744;DHT22;12052;53.478;10.182;2023-07-13T14:46:32;18.90;99.90
23744;DHT22;12052;53.478;10.182;2023-07-13T14:49:03;18.90;99.90
23744;DHT22;12052;53.478;10.182;2023-07-13T14:51:30;19.00;99.90
23744;DHT22;12052;53.478;10.182;2023-07-13T14:53:55;19.10;99.90
23744;DHT22;12052;53.478;10.182;2023-07-13T14:59:43;19.30;99.90
23744;DHT22;12052;53.478;10.182;2023-07-13T15:02:35;19.30;99.90
23744;DHT22;12052;53.478;10.182;2023-07-13T15:05:12;19.50;99.90
23744;DHT22;12052;53.478;10.182;2023-07-13T15:24:29;19.80;99.90
23744;DHT22;12052;53.478;10.182;2023-07-13T15:26:54;19.80;99.90
23744;DHT22;12052;53.478;10.182;2023-07-13T16:30:15;19.60;99.90
23744;DHT22;12052;53.478;10.182;2023-07-13T16:33:15;19.70;99.90
23744;DHT22;12052;53.478;10.182;2023-07-13T16:35:41;19.70;99.90
23744;DHT22;12052;53.478;10.182;2023-07-13T16:38:23;19.70;99.90
23744;DHT22;12052;53.478;10.182;2023-07-13T16:40:50;19.90;99.90
23744;DHT22;12052;53.478;10.182;2023-07-13T16:43:18;20.00;99.90
23744;DHT22;12052;53.478;10.182;2023-07-13T16:45:47;20.20;99.90
23744;DHT22;12052;53.478;10.182;2023-07-13T16:48:15;20.30;99.90
23744;DHT22;12052;53.478;10.182;2023-07-13T16:50:42;20.50;99.90
23744;DHT22;12052;53.478;10.182;2023-07-13T16:53:22;20.50;99.90
23744;DHT22;12052;53.478;10.182;2023-07-13T16:55:49;20.40;99.90
23744;DHT22;12052;53.478;10.182;2023-07-13T16:58:16;20.30;99.90
23744;DHT22;12052;53.478;10.182;2023-07-13T17:00:42;20.30;99.90
23744;DHT22;12052;53.478;10.182;2023-07-13T17:03:08;20.40;99.90
23744;DHT22;12052;53.478;10.182;2023-07-13T17:08:02;20.50;99.90
23744;DHT22;12052;53.478;10.182;2023-07-13T17:13:51;20.40;99.90
23744;DHT22;12052;53.478;10.182;2023-07-13T17:19:46;20.20;99.90
23744;DHT22;12052;53.478;10.182;2023-07-13T17:22:15;20.10;99.90
23744;DHT22;12052;53.478;10.182;2023-07-13T17:24:44;20.10;99.90
23744;DHT22;12052;53.478;10.182;2023-07-13T17:27:11;20.10;99.90
23744;DHT22;12052;53.478;10.182;2023-07-13T17:32:59;19.90;99.90
23744;DHT22;12052;53.478;10.182;2023-07-13T17:35:28;19.90;99.90
23744;DHT22;12052;53.478;10.182;2023-07-13T17:37:59;19.90;99.90
23744;DHT22;12052;53.478;10.182;2023-07-13T17:40:25;19.90;99.90
23744;DHT22;12052;53.478;10.182;2023-07-13T17:42:51;19.90;99.90
23744;DHT22;12052;53.478;10.182;2023-07-13T17:45:23;19.80;99.90
23744;DHT22;12052;53.478;10.182;2023-07-13T17:47:49;19.80;99.90
23744;DHT22;12052;53.478;10.182;2023-07-13T17:50:55;19.80;99.90
23744;DHT22;12052;53.478;10.182;2023-07-13T17:53:21;19.80;99.90
23744;DHT22;12052;53.478;10.182;2023-07-13T17:55:48;19.80;99.90
23744;DHT22;12052;53.478;10.182;2023-07-13T17:58:16;19.70;99.90
23744;DHT22;12052;53.478;10.182;2023-07-13T18:00:43;19.70;99.90
23744;DHT22;12052;53.478;10.182;2023-07-13T18:03:15;19.70;99.90
23744;DHT22;12052;53.478;10.182;2023-07-13T18:05:44;19.70;99.90
23744;DHT22;12052;53.478;10.182;2023-07-13T18:11:32;19.60;99.90
23744;DHT22;12052;53.478;10.182;2023-07-13T18:13:58;19.50;99.90
23744;DHT22;12052;53.478;10.182;2023-07-13T18:16:26;19.40;99.90
23744;DHT22;12052;53.478;10.182;2023-07-13T18:18:59;19.40;99.90